Time;durP1;ratioP1;P1;durP2;ratioP2;P2;SDS_P1;SDS_P2;PMS_P1;PMS_P2;Temp;Humidity;BMP_temperature;BMP_pressure;BME280_temperature;BME280_humidity;BME280_pressure;Samples;Min_cycle;Max_cycle;Signal;HPM_P1;HPM_P2
2022/07/13 00:01:07;;;;;;;17.23;10.05;;;;;;;17.68;70.87;99724.47;5072433;28;20049;-81
2022/07/13 00:03:34;;;;;;;20.13;11.30;;;;;;;17.66;71.04;99728.94;5072069;28;20140;-80
2022/07/13 00:06:02;;;;;;;21.80;12.45;;;;;;;17.53;71.12;99698.47;5072658;28;20059;-80
2022/07/13 00:08:29;;;;;;;18.95;12.45;;;;;;;17.53;71.46;99709.91;5072267;28;20049;-80
2022/07/13 00:10:56;;;;;;;22.20;12.50;;;;;;;17.65;71.37;99727.19;5072201;28;20076;-79
2022/07/13 00:13:23;;;;;;;14.65;10.07;;;;;;;17.63;71.32;99725.50;5074879;28;20084;-83
2022/07/13 00:15:50;;;;;;;18.45;9.95;;;;;;;17.42;71.22;99697.91;5076224;28;20049;-80
2022/07/13 00:18:17;;;;;;;14.43;9.23;;;;;;;17.51;71.31;99716.13;5075987;28;20052;-80
2022/07/13 00:20:47;;;;;;;17.50;10.07;;;;;;;17.46;71.22;99718.03;5076090;28;20048;-80
2022/07/13 00:23:14;;;;;;;13.05;8.80;;;;;;;17.35;71.47;99705.13;5076309;28;20048;-79
2022/07/13 00:25:41;;;;;;;18.63;9.60;;;;;;;17.46;71.27;99721.53;5076071;28;20055;-81
2022/07/13 00:28:08;;;;;;;21.27;10.02;;;;;;;17.41;71.63;99718.16;5076006;28;20052;-80
2022/07/13 00:30:35;;;;;;;14.23;9.52;;;;;;;17.49;71.42;99723.25;5075715;28;20082;-80
2022/07/13 00:33:04;;;;;;;14.70;10.00;;;;;;;17.50;71.61;99720.53;5074586;28;20044;-80
2022/07/13 00:35:31;;;;;;;18.47;10.77;;;;;;;17.35;71.41;99698.06;5075561;28;20048;-81
2022/07/13 00:37:58;;;;;;;21.63;9.75;;;;;;;17.38;71.38;99719.13;5074626;28;20055;-81
2022/07/13 00:40:26;;;;;;;16.33;9.82;;;;;;;17.21;71.64;99700.22;5074431;28;20056;-80
2022/07/13 00:42:53;;;;;;;18.75;9.90;;;;;;;17.23;71.46;99703.69;5075877;28;20048;-80
2022/07/13 00:45:20;;;;;;;15.35;9.02;;;;;;;17.35;71.18;99729.72;5075520;28;20096;-81
2022/07/13 00:47:49;;;;;;;16.05;9.40;;;;;;;17.31;71.44;99724.59;5074397;28;20060;-79
2022/07/13 00:50:16;;;;;;;16.33;9.48;;;;;;;17.22;71.54;99715.13;5074362;28;20524;-80
2022/07/13 00:52:43;;;;;;;15.18;9.07;;;;;;;17.18;71.54;99713.47;5074275;28;20045;-80
2022/07/13 00:55:11;;;;;;;18.55;9.38;;;;;;;17.21;71.33;99713.41;5075620;28;20063;-81
2022/07/13 00:57:38;;;;;;;13.30;9.00;;;;;;;17.18;70.97;99714.34;5075714;28;20505;-79
2022/07/13 01:00:13;;;;;;;16.10;9.40;;;;;;;17.18;71.00;99710.84;5074447;28;20134;-81
2022/07/13 01:02:44;;;;;;;17.60;9.68;;;;;;;17.18;71.36;99709.06;5075967;28;20052;-79
2022/07/13 01:05:12;;;;;;;22.45;10.38;;;;;;;17.11;72.30;99718.06;5077008;28;20489;-81
2022/07/13 01:07:40;;;;;;;17.30;9.52;;;;;;;16.98;72.63;99709.56;5074611;28;20074;-79
2022/07/13 01:10:09;;;;;;;13.73;8.55;;;;;;;16.95;73.02;99724.59;5074977;28;20067;-80
2022/07/13 01:12:38;;;;;;;14.02;8.07;;;;;;;16.85;73.53;99718.72;5075054;28;20076;-81
2022/07/13 01:15:06;;;;;;;13.57;8.55;;;;;;;16.70;73.74;99701.44;5075139;28;20044;-79
2022/07/13 01:17:35;;;;;;;13.57;7.90;;;;;;;16.93;73.73;99713.25;5074802;28;20610;-79
2022/07/13 01:20:03;;;;;;;12.95;8.02;;;;;;;17.05;73.35;99725.25;5062147;28;20053;-79
2022/07/13 01:22:38;;;;;;;13.30;8.60;;;;;;;17.10;73.09;99704.88;5073542;28;20473;-79
2022/07/13 01:25:05;;;;;;;15.40;8.73;;;;;;;17.23;72.56;99713.34;5074577;28;20080;-81
2022/07/13 01:27:34;;;;;;;10.95;8.13;;;;;;;17.27;72.30;99704.44;5073406;28;20491;-79
2022/07/13 01:30:02;;;;;;;13.60;7.90;;;;;;;17.23;72.03;99700.16;5074801;28;20052;-79
2022/07/13 01:32:29;;;;;;;11.43;7.88;;;;;;;17.28;72.04;99704.41;5073323;28;20049;-79
2022/07/13 01:34:56;;;;;;;13.70;8.07;;;;;;;17.28;71.97;99711.47;5074936;28;20052;-81
2022/07/13 01:37:23;;;;;;;9.70;7.55;;;;;;;17.32;71.92;99716.63;5073339;28;20059;-80
2022/07/13 01:39:50;;;;;;;15.05;7.78;;;;;;;17.36;71.78;99723.56;5073395;28;20501;-81
2022/07/13 01:42:17;;;;;;;13.88;7.80;;;;;;;17.38;71.51;99724.41;5073152;28;20049;-79
2022/07/13 01:44:46;;;;;;;10.60;7.53;;;;;;;17.35;71.41;99716.53;5074510;28;20067;-82
2022/07/13 01:47:14;;;;;;;10.65;7.60;;;;;;;17.36;71.23;99709.50;5074460;28;20057;-79
2022/07/13 01:49:40;;;;;;;12.32;7.75;;;;;;;17.34;71.26;99709.53;5074222;28;20052;-79
2022/07/13 01:52:07;;;;;;;14.40;8.13;;;;;;;17.38;71.10;99718.25;5073947;28;20452;-79
2022/07/13 01:54:35;;;;;;;12.30;7.43;;;;;;;17.38;71.18;99720.91;5072885;28;20082;-81
2022/07/13 01:57:02;;;;;;;13.52;8.32;;;;;;;17.24;71.21;99688.72;5074044;28;20060;-79
2022/07/13 01:59:30;;;;;;;17.80;8.23;;;;;;;17.33;71.18;99707.78;5072854;28;20189;-78
2022/07/13 02:01:57;;;;;;;14.90;8.15;;;;;;;17.43;71.07;99710.22;5072808;28;20114;-79
2022/07/13 02:04:24;;;;;;;15.90;8.50;;;;;;;17.49;70.69;99720.59;5072336;28;20048;-80
2022/07/13 02:06:51;;;;;;;14.43;8.68;;;;;;;17.62;70.53;99724.63;5074265;28;20135;-81
2022/07/13 02:09:19;;;;;;;13.35;7.97;;;;;;;17.73;70.06;99711.13;5072798;28;20056;-82
2022/07/13 02:11:46;;;;;;;9.35;7.25;;;;;;;17.88;69.61;99704.56;5072649;28;20056;-80
2022/07/13 02:14:13;;;;;;;9.77;7.90;;;;;;;18.16;68.72;99702.84;5072844;28;20052;-82
2022/07/13 02:16:41;;;;;;;14.77;7.25;;;;;;;18.91;66.70;99699.63;5073953;28;20102;-82
2022/07/13 02:19:07;;;;;;;12.93;7.50;;;;;;;21.34;59.88;99695.66;5072518;28;20059;-81
2022/07/13 02:21:35;;;;;;;12.68;7.50;;;;;;;24.00;52.31;99690.69;5072585;28;20048;-81
2022/07/13 02:24:02;;;;;;;8.65;6.60;;;;;;;25.92;46.96;99673.28;5072609;28;20060;-81
2022/07/13 02:26:28;;;;;;;10.68;6.93;;;;;;;27.49;43.18;99689.72;5073551;28;20076;-81
2022/07/13 02:28:56;;;;;;;11.20;7.18;;;;;;;28.61;40.74;99684.44;5072688;28;20573;-83
2022/07/13 02:31:22;;;;;;;12.13;7.15;;;;;;;29.61;38.07;99677.66;5072186;28;20087;-80
2022/07/13 02:33:49;;;;;;;8.82;6.50;;;;;;;30.12;37.05;99683.56;5072369;28;20592;-80
2022/07/13 02:36:17;;;;;;;13.60;7.20;;;;;;;30.69;35.59;99697.78;5072444;28;20044;-80
2022/07/13 02:38:50;;;;;;;9.60;6.57;;;;;;;31.06;35.04;99700.13;5072511;28;20143;-81
2022/07/13 02:41:17;;;;;;;12.80;6.80;;;;;;;31.71;33.61;99680.13;5072151;28;20628;-80
2022/07/13 02:43:48;;;;;;;10.82;6.80;;;;;;;32.22;32.25;99678.34;5072594;28;20060;-82
2022/07/13 02:46:15;;;;;;;9.77;6.80;;;;;;;29.95;36.29;99685.78;5071958;28;20154;-80
2022/07/13 02:48:42;;;;;;;9.25;6.28;;;;;;;28.94;37.75;99664.91;5073743;28;20053;-82
2022/07/13 02:51:09;;;;;;;8.50;6.82;;;;;;;28.76;38.16;99690.47;5073252;28;20052;-80
2022/07/13 02:53:37;;;;;;;11.37;6.83;;;;;;;29.22;37.82;99687.00;5071432;28;20417;-81
2022/07/13 02:56:08;;;;;;;11.90;6.35;;;;;;;31.62;33.46;99687.19;5072383;28;20325;-80
2022/07/13 02:58:35;;;;;;;9.98;5.90;;;;;;;30.74;34.42;99698.25;5072888;28;20525;-79
2022/07/13 03:01:03;;;;;;;11.43;7.28;;;;;;;28.65;37.89;99687.72;5071826;28;20569;-80
2022/07/13 03:03:30;;;;;;;11.65;6.80;;;;;;;27.04;41.16;99687.41;5071466;28;20573;-82
2022/07/13 03:05:58;;;;;;;14.23;7.20;;;;;;;25.97;43.86;99691.75;5071746;28;20071;-80
2022/07/13 03:08:25;;;;;;;8.90;6.78;;;;;;;26.12;43.31;99666.66;5071398;28;20426;-81
2022/07/13 03:10:52;;;;;;;9.43;6.47;;;;;;;25.73;44.14;99687.78;5055059;28;20052;-81
2022/07/13 03:13:19;;;;;;;8.98;6.13;;;;;;;25.06;45.88;99694.50;5071548;28;20055;-80
2022/07/13 03:15:46;;;;;;;10.18;6.80;;;;;;;24.67;46.59;99685.22;5071539;28;20134;-79
2022/07/13 03:18:13;;;;;;;10.70;6.82;;;;;;;25.14;45.80;99689.56;5072111;28;20056;-80
2022/07/13 03:20:41;;;;;;;9.48;6.10;;;;;;;25.06;45.05;99646.41;5073282;28;20515;-81
2022/07/13 03:23:09;;;;;;;11.43;6.20;;;;;;;25.90;43.75;99685.91;5071607;28;20102;-81
2022/07/13 03:25:36;;;;;;;10.68;6.20;;;;;;;26.49;42.78;99696.41;5071421;28;20059;-80
2022/07/13 03:28:03;;;;;;;9.32;5.78;;;;;;;28.09;39.07;99680.16;5071621;28;20102;-80
2022/07/13 03:30:31;;;;;;;8.15;5.57;;;;;;;30.70;34.77;99694.97;5072537;28;20063;-81
2022/07/13 03:32:58;;;;;;;6.57;5.50;;;;;;;33.52;30.31;99689.81;5071413;28;20052;-78
2022/07/13 03:35:25;;;;;;;10.45;6.22;;;;;;;34.08;29.08;99695.34;5072463;28;20052;-80
2022/07/13 03:37:52;;;;;;;14.43;6.95;;;;;;;31.97;31.92;99691.31;5071430;28;20086;-81
2022/07/13 03:40:24;;;;;;;12.63;6.93;;;;;;;30.44;34.04;99677.41;5071382;28;20060;-80
2022/07/13 03:42:52;;;;;;;16.60;7.35;;;;;;;28.13;38.46;99700.44;5071389;28;20052;-80
2022/07/13 03:45:20;;;;;;;11.38;6.53;;;;;;;26.66;41.47;99700.69;5070911;28;20048;-81
2022/07/13 03:47:48;;;;;;;8.45;5.93;;;;;;;25.62;43.78;99694.75;5070724;28;20509;-80
2022/07/13 03:50:16;;;;;;;9.25;6.10;;;;;;;25.10;44.99;99686.25;5071220;28;20052;-79
2022/07/13 03:52:44;;;;;;;8.10;5.95;;;;;;;25.39;44.91;99691.69;5071045;28;20049;-80
2022/07/13 03:55:14;;;;;;;8.50;6.28;;;;;;;26.41;42.80;99704.94;5071281;28;20060;-83
2022/07/13 03:57:43;;;;;;;8.07;5.88;;;;;;;26.55;42.66;99701.38;5071274;28;20078;-81
2022/07/13 04:00:10;;;;;;;8.43;5.60;;;;;;;27.47;41.16;99694.34;5071904;28;20417;-80
2022/07/13 04:02:46;;;;;;;7.72;5.22;;;;;;;28.35;39.32;99700.63;5073635;28;20049;-80
2022/07/13 04:05:14;;;;;;;7.30;5.32;;;;;;;27.57;40.65;99692.75;5072068;28;20182;-79
2022/07/13 04:07:43;;;;;;;8.25;5.25;;;;;;;26.75;42.35;99674.13;5054501;28;20052;-79
2022/07/13 04:10:11;;;;;;;8.52;5.20;;;;;;;27.30;41.45;99699.06;5070932;28;20143;-80
2022/07/13 04:12:42;;;;;;;8.07;5.20;;;;;;;28.33;39.33;99694.50;5070667;28;20177;-81
2022/07/13 04:15:10;;;;;;;9.77;5.35;;;;;;;28.07;39.69;99695.50;5071070;28;20060;-80
2022/07/13 04:17:38;;;;;;;8.55;5.40;;;;;;;27.31;41.31;99706.13;5070822;28;20041;-80
2022/07/13 04:20:07;;;;;;;9.57;5.40;;;;;;;26.88;42.30;99708.16;5072346;28;20095;-83
2022/07/13 04:22:36;;;;;;;6.00;5.03;;;;;;;26.43;43.40;99707.50;5070730;28;20048;-82
2022/07/13 04:25:04;;;;;;;6.78;5.15;;;;;;;26.24;43.70;99700.69;5072229;28;20048;-78
2022/07/13 04:27:31;;;;;;;11.45;5.70;;;;;;;26.51;43.36;99702.53;5070803;28;20052;-79
2022/07/13 04:29:58;;;;;;;9.50;5.40;;;;;;;26.71;43.03;99720.84;5068189;28;20045;-80
2022/07/13 04:32:25;;;;;;;8.38;5.70;;;;;;;26.53;43.40;99695.25;5060602;28;20052;-81
2022/07/13 04:34:53;;;;;;;10.55;6.07;;;;;;;26.50;42.89;99669.53;5070772;28;20044;-80
2022/07/13 04:37:21;;;;;;;11.82;6.47;;;;;;;27.12;42.49;99711.84;5070684;28;20048;-80
2022/07/13 04:39:49;;;;;;;11.05;6.70;;;;;;;27.36;41.62;99695.97;5070632;28;20049;-78
2022/07/13 04:42:16;;;;;;;10.93;6.47;;;;;;;27.46;41.75;99698.84;5070684;28;20052;-82
2022/07/13 04:44:43;;;;;;;11.93;7.20;;;;;;;27.49;41.58;99698.66;5070126;28;20052;-78
2022/07/13 04:47:10;;;;;;;9.63;6.68;;;;;;;27.07;41.99;99680.97;5070672;28;20052;-81
2022/07/13 04:49:37;;;;;;;12.35;7.15;;;;;;;26.93;42.03;99682.78;5071545;28;20060;-80
2022/07/13 04:52:05;;;;;;;13.60;7.32;;;;;;;26.99;42.36;99689.53;5071721;28;20102;-79
2022/07/13 04:54:36;;;;;;;12.48;6.88;;;;;;;27.09;42.13;99692.47;5070446;28;20049;-79
2022/07/13 04:57:03;;;;;;;12.65;7.05;;;;;;;26.77;41.72;99645.44;5070694;28;20049;-80
2022/07/13 04:59:33;;;;;;;12.90;7.47;;;;;;;27.07;42.17;99708.63;5071786;28;20098;-82
2022/07/13 05:02:00;;;;;;;;;;;;;;;26.50;43.37;99700.78;5074665;28;20080;-83
2022/07/13 05:04:28;;;;;;;9.82;7.03;;;;;;;26.44;43.33;99683.31;5074398;28;20032;-80
2022/07/13 05:06:56;;;;;;;15.95;7.25;;;;;;;26.48;43.49;99705.38;5075575;28;20049;-81
2022/07/13 05:09:23;;;;;;;10.82;6.97;;;;;;;26.37;43.80;99700.72;5075275;28;20442;-82
2022/07/13 05:11:50;;;;;;;11.30;6.55;;;;;;;26.44;43.80;99696.72;5073862;28;20060;-80
2022/07/13 05:14:17;;;;;;;11.70;6.28;;;;;;;26.49;43.70;99674.97;5073665;28;20048;-83
2022/07/13 05:16:45;;;;;;;9.95;6.55;;;;;;;26.50;43.58;99688.28;5073504;28;20463;-83
2022/07/13 05:19:13;;;;;;;10.07;6.43;;;;;;;26.56;43.92;99687.03;5075137;28;20080;-83
2022/07/13 05:21:41;;;;;;;13.07;7.00;;;;;;;26.60;43.56;99682.34;5073765;28;20098;-80
2022/07/13 05:24:09;;;;;;;11.88;6.88;;;;;;;26.44;43.55;99658.38;5073834;28;20052;-84
2022/07/13 05:26:37;;;;;;;10.68;6.10;;;;;;;26.45;43.64;99684.19;5056721;28;20087;-81
2022/07/13 05:29:06;;;;;;;12.38;5.82;;;;;;;26.38;44.18;99682.88;5074853;28;20135;-81
2022/07/13 05:31:35;;;;;;;13.13;5.60;;;;;;;26.59;44.00;99685.97;5073534;28;20139;-82
2022/07/13 05:34:04;;;;;;;10.07;5.30;;;;;;;26.70;43.31;99670.91;5056427;28;20052;-81
2022/07/13 05:36:34;;;;;;;13.38;6.70;;;;;;;26.89;43.17;99678.59;5073284;28;20113;-83
2022/07/13 05:39:02;;;;;;;8.40;5.68;;;;;;;27.08;42.96;99670.16;5074641;28;20055;-85
2022/07/13 05:41:29;;;;;;;11.30;6.45;;;;;;;26.96;42.96;99671.00;5073439;28;20052;-82
2022/07/13 05:43:57;;;;;;;10.43;6.55;;;;;;;27.08;43.17;99656.75;5056708;28;20510;-81
2022/07/13 05:46:24;;;;;;;11.93;5.75;;;;;;;27.18;41.89;99665.88;5072829;28;20060;-81
2022/07/13 05:48:52;;;;;;;10.50;4.88;;;;;;;27.06;41.85;99680.13;5073206;28;20049;-82
2022/07/13 05:51:19;;;;;;;7.70;4.50;;;;;;;26.95;41.46;99667.47;5073031;28;20079;-83
2022/07/13 05:54:03;;;;;;;6.93;3.88;;;;;;;27.07;40.95;99655.03;5073109;28;20495;-83
2022/07/13 05:56:50;;;;;;;7.88;3.80;;;;;;;27.22;40.68;99665.72;5074250;28;20056;-82
2022/07/13 05:59:17;;;;;;;9.00;3.50;;;;;;;27.20;40.37;99676.50;5074350;28;20068;-83
2022/07/13 06:01:44;;;;;;;10.00;3.50;;;;;;;27.04;40.32;99674.00;5074095;28;20056;-82
2022/07/13 06:04:11;;;;;;;6.72;3.30;;;;;;;26.90;40.49;99668.72;5073954;28;20479;-81
2022/07/13 06:06:38;;;;;;;7.72;3.60;;;;;;;26.91;41.02;99674.00;5056315;28;20090;-81
2022/07/13 06:09:05;;;;;;;5.65;3.58;;;;;;;26.99;40.49;99657.38;5073993;28;20498;-83
2022/07/13 06:11:32;;;;;;;10.30;3.67;;;;;;;26.97;40.10;99637.84;5072615;28;20547;-81
2022/07/13 06:13:59;;;;;;;7.07;3.35;;;;;;;27.05;40.03;99665.00;5073848;28;20220;-82
2022/07/13 06:16:26;;;;;;;5.78;2.67;;;;;;;26.94;38.92;99651.47;5073806;28;20051;-83
2022/07/13 06:18:53;;;;;;;5.28;2.80;;;;;;;26.66;39.67;99664.03;5073623;28;20060;-83
2022/07/13 06:21:20;;;;;;;8.25;2.92;;;;;;;26.58;40.88;99657.47;5073901;28;20493;-82
2022/07/13 06:23:47;;;;;;;6.70;2.95;;;;;;;26.79;40.86;99647.16;5073628;28;20102;-82
2022/07/13 06:26:14;;;;;;;7.93;2.90;;;;;;;26.91;40.36;99668.63;5073696;28;20130;-82
2022/07/13 06:28:41;;;;;;;7.22;3.17;;;;;;;26.63;40.84;99656.22;5073595;28;20041;-82
2022/07/13 06:31:09;;;;;;;10.80;3.53;;;;;;;26.42;41.31;99657.63;5074016;28;20534;-85
2022/07/13 06:33:36;;;;;;;8.90;3.90;;;;;;;26.36;41.48;99654.34;5072048;28;20563;-82
2022/07/13 06:36:04;;;;;;;8.50;3.30;;;;;;;26.43;41.73;99656.63;5073097;28;20074;-81
2022/07/13 06:38:31;;;;;;;12.32;3.95;;;;;;;26.50;41.44;99620.44;5072991;28;20084;-83
2022/07/13 06:40:58;;;;;;;10.70;4.15;;;;;;;26.87;41.01;99658.22;5071802;28;20045;-84
2022/07/13 06:43:25;;;;;;;8.38;3.65;;;;;;;26.95;40.61;99655.84;5073433;28;20052;-84
2022/07/13 06:45:55;;;;;;;6.40;3.47;;;;;;;26.68;40.68;99653.25;5071586;28;20057;-81
2022/07/13 06:48:22;;;;;;;7.88;3.90;;;;;;;26.65;41.12;99661.47;5073179;28;20127;-85
2022/07/13 06:50:49;;;;;;;11.27;4.07;;;;;;;26.94;40.14;99657.69;5071904;28;20052;-82
2022/07/13 06:53:16;;;;;;;11.10;3.50;;;;;;;27.16;39.54;99649.03;5073481;28;20083;-83
2022/07/13 06:55:43;;;;;;;12.77;3.75;;;;;;;27.06;39.59;99637.25;5055416;28;20573;-82
2022/07/13 06:58:10;;;;;;;11.38;3.97;;;;;;;27.21;39.47;99671.97;5073320;28;20091;-83
2022/07/13 07:00:37;;;;;;;9.80;4.07;;;;;;;27.03;40.03;99661.56;5072762;28;20067;-83
2022/07/13 07:03:04;;;;;;;13.15;4.43;;;;;;;26.76;41.03;99662.47;5073522;28;20088;-88
2022/07/13 07:05:31;;;;;;;11.82;4.85;;;;;;;26.96;40.77;99646.88;5073153;28;20147;-83
2022/07/13 07:08:00;;;;;;;8.57;3.85;;;;;;;26.87;41.02;99653.72;5071557;28;20053;-81
2022/07/13 07:10:27;;;;;;;9.45;3.92;;;;;;;26.53;41.63;99649.72;5063060;28;20501;-81
2022/07/13 07:13:00;;;;;;;6.00;3.88;;;;;;;26.52;41.15;99656.91;5051510;28;20059;-79
2022/07/13 07:15:27;;;;;;;7.63;3.25;;;;;;;26.46;41.57;99633.19;5052723;28;20045;-80
2022/07/13 07:17:54;;;;;;;8.15;2.78;;;;;;;26.68;40.35;99650.56;5052663;28;20056;-81
2022/07/13 07:20:22;;;;;;;6.47;3.15;;;;;;;26.73;39.95;99657.31;5053984;28;20088;-80
2022/07/13 07:22:49;;;;;;;9.38;3.90;;;;;;;26.59;41.15;99649.34;5051875;28;20053;-80
2022/07/13 07:25:16;;;;;;;9.60;3.72;;;;;;;26.11;42.07;99649.75;5052984;28;20503;-82
2022/07/13 07:27:43;;;;;;;11.18;4.00;;;;;;;26.06;42.59;99638.47;5053703;28;20056;-82
2022/07/13 07:30:10;;;;;;;13.23;4.25;;;;;;;26.14;41.69;99628.13;5053210;28;20062;-80
2022/07/13 07:32:38;;;;;;;13.63;3.40;;;;;;;26.36;40.87;99640.13;5051284;28;20060;-83
2022/07/13 07:35:07;;;;;;;10.38;3.90;;;;;;;26.41;40.26;99605.00;5051221;28;20513;-81
2022/07/13 07:37:37;;;;;;;11.88;3.10;;;;;;;26.64;40.80;99625.78;5058776;28;20063;-80
2022/07/13 07:40:08;;;;;;;7.07;3.13;;;;;;;26.48;40.89;99599.16;5072587;28;20501;-83
2022/07/13 07:42:36;;;;;;;;;;;;;;;26.36;41.61;99629.41;5055544;28;20413;-80
2022/07/13 07:45:08;;;;;;;10.50;2.75;;;;;;;26.64;40.08;99625.78;5071861;28;19988;-80
2022/07/13 07:47:36;;;;;;;6.93;2.60;;;;;;;26.64;39.73;99625.78;5072606;28;20064;-80
2022/07/13 07:50:05;;;;;;;7.32;2.67;;;;;;;26.86;39.43;99608.25;5072066;28;20194;-81
2022/07/13 07:52:33;;;;;;;8.88;3.15;;;;;;;26.96;38.41;99612.88;5072063;28;20147;-82
2022/07/13 07:55:19;;;;;;;5.47;2.60;;;;;;;26.83;38.02;99582.53;5071344;28;20044;-80
2022/07/13 07:57:47;;;;;;;5.85;2.00;;;;;;;27.02;36.42;99600.91;5072259;28;20056;-81
2022/07/13 08:00:15;;;;;;;5.60;2.58;;;;;;;27.14;36.54;99607.22;5072086;28;20498;-80
2022/07/13 08:02:42;;;;;;;43.35;7.18;;;;;;;27.34;35.28;99606.72;5073365;28;20110;-79
2022/07/13 08:05:10;;;;;;;17.88;3.47;;;;;;;27.33;36.59;99599.63;5075816;28;20080;-81
2022/07/13 08:07:44;;;;;;;8.00;3.13;;;;;;;27.34;37.48;99609.41;5076293;28;20056;-78
2022/07/13 08:10:13;;;;;;;7.90;2.70;;;;;;;27.38;37.28;99604.66;5076036;28;20076;-80
2022/07/13 08:13:04;;;;;;;4.72;1.85;;;;;;;27.34;35.59;99589.75;5066070;28;20563;-82
2022/07/13 08:15:33;;;;;;;9.57;2.60;;;;;;;27.28;36.33;99579.50;5067211;28;20052;-82
2022/07/13 08:18:00;;;;;;;8.55;2.92;;;;;;;27.31;37.56;99598.88;5072103;28;20075;-83
2022/07/13 08:20:27;;;;;;;3.05;2.40;;;;;;;26.82;35.87;99596.03;5072107;28;20080;-80
2022/07/13 08:22:54;;;;;;;3.88;2.13;;;;;;;26.44;36.46;99607.50;5072074;28;20131;-84
2022/07/13 08:25:23;;;;;;;4.63;2.20;;;;;;;26.34;37.23;99613.44;5072049;28;20133;-82
2022/07/13 08:27:50;;;;;;;5.38;2.28;;;;;;;26.14;37.00;99579.97;5072130;28;20110;-82
2022/07/13 08:30:19;;;;;;;6.10;2.10;;;;;;;26.00;36.22;99544.34;5071204;28;20048;-83
2022/07/13 08:32:46;;;;;;;2.45;2.00;;;;;;;26.38;36.67;99605.22;5071807;28;20436;-86
2022/07/13 08:40:45;;;;;;;5.40;2.30;;;;;;;26.70;36.78;99576.31;5075581;28;20056;-81
2022/07/13 08:43:12;;;;;;;2.20;2.00;;;;;;;27.06;36.88;99597.03;5075485;28;20517;-81
2022/07/13 08:45:39;;;;;;;2.80;2.42;;;;;;;27.22;36.09;99559.31;5074939;28;20429;-81
2022/07/13 08:48:20;;;;;;;2.72;2.40;;;;;;;27.52;36.41;99601.88;5057607;28;20102;-83
2022/07/13 08:50:57;;;;;;;5.47;2.50;;;;;;;27.30;36.28;99607.91;5075490;28;20147;-81
2022/07/13 08:53:25;;;;;;;4.05;2.53;;;;;;;27.24;36.58;99592.25;5074588;28;20071;-80
2022/07/13 08:55:53;;;;;;;6.03;2.63;;;;;;;27.65;36.44;99592.97;5074861;28;20075;-83
2022/07/13 08:58:20;;;;;;;3.55;2.40;;;;;;;27.82;35.51;99595.28;5075197;28;20512;-81
2022/07/13 09:00:47;;;;;;;2.63;2.42;;;;;;;27.41;36.41;99583.00;5073829;28;20084;-82
2022/07/13 09:03:14;;;;;;;4.72;2.35;;;;;;;27.09;37.41;99607.53;5074013;28;20055;-80
2022/07/13 09:05:42;;;;;;;4.90;1.95;;;;;;;26.40;37.10;99616.69;5073915;28;20056;-81
2022/07/13 09:08:12;;;;;;;5.90;1.73;;;;;;;26.06;37.46;99609.03;5075273;28;20056;-81
2022/07/13 09:10:53;;;;;;;6.28;1.90;;;;;;;25.90;35.95;99625.22;5075065;28;20053;-81
2022/07/13 09:13:44;;;;;;;3.00;2.03;;;;;;;25.48;37.05;99626.94;5075513;28;20099;-80
2022/07/13 09:16:13;;;;;;;2.72;1.55;;;;;;;24.78;37.98;99575.97;5074073;28;20052;-81
2022/07/13 09:18:45;;;;;;;10.00;2.30;;;;;;;24.83;41.15;99626.44;5073143;28;20124;-81
2022/07/13 09:21:12;;;;;;;7.57;1.83;;;;;;;24.66;42.64;99627.44;5074192;28;20398;-82
2022/07/13 09:23:39;;;;;;;6.00;2.40;;;;;;;24.83;42.75;99637.97;5074493;28;20048;-81
2022/07/13 09:26:07;;;;;;;5.43;2.58;;;;;;;25.08;44.00;99625.81;5074659;28;20052;-81
2022/07/13 09:28:45;;;;;;;2.78;2.28;;;;;;;25.43;42.26;99630.88;5074525;28;20064;-81
2022/07/13 09:31:14;;;;;;;4.60;2.28;;;;;;;25.79;43.82;99633.06;5074758;28;20059;-80
2022/07/13 09:33:45;;;;;;;5.40;2.25;;;;;;;25.94;41.80;99637.47;5074694;28;20470;-81
2022/07/13 09:36:15;;;;;;;4.35;2.17;;;;;;;25.82;42.33;99632.00;5078492;28;20074;-81
2022/07/13 09:38:51;;;;;;;3.30;1.92;;;;;;;25.72;44.22;99635.22;5074326;28;20049;-83
2022/07/13 09:41:25;;;;;;;5.05;2.80;;;;;;;25.30;43.96;99642.31;5074467;28;20050;-81
2022/07/13 09:46:54;;;;;;;10.70;2.92;;;;;;;23.91;49.68;99646.72;5073785;28;20430;-82
2022/07/13 09:49:30;;;;;;;8.18;3.00;;;;;;;23.49;50.34;99632.09;5074429;28;20066;-82
2022/07/13 09:51:59;;;;;;;20.80;4.47;;;;;;;23.48;50.54;99637.50;5074344;28;20055;-80
2022/07/13 09:54:28;;;;;;;13.43;3.27;;;;;;;23.57;50.58;99617.47;5073265;28;20044;-81
2022/07/13 09:57:00;;;;;;;3.72;2.45;;;;;;;23.52;50.29;99594.59;5073779;28;20055;-81
2022/07/13 09:59:28;;;;;;;3.38;2.50;;;;;;;23.70;49.73;99589.19;5073089;28;20121;-82
2022/07/13 10:01:56;;;;;;;3.80;2.08;;;;;;;24.08;48.55;99594.25;5073921;28;20452;-81
2022/07/13 10:04:23;;;;;;;21.90;4.10;;;;;;;24.61;48.62;99594.78;5072818;28;20101;-81
2022/07/13 10:07:11;;;;;;;6.68;2.50;;;;;;;25.29;48.27;99589.78;5073804;28;20086;-79
2022/07/13 10:09:38;;;;;;;4.93;2.30;;;;;;;25.69;45.43;99587.28;5076201;28;20138;-80
2022/07/13 10:12:10;;;;;;;11.80;2.75;;;;;;;26.27;43.31;99582.69;5073769;28;20049;-79
2022/07/13 10:14:38;;;;;;;7.18;2.75;;;;;;;26.72;42.49;99574.38;5073674;28;20512;-80
2022/07/13 10:17:11;;;;;;;3.25;2.00;;;;;;;26.64;41.62;99566.00;5072451;28;20095;-82
2022/07/13 10:19:49;;;;;;;5.28;2.42;;;;;;;26.09;44.56;99546.41;5055993;28;20048;-80
2022/07/13 10:22:21;;;;;;;3.17;2.42;;;;;;;25.97;45.35;99571.31;5073703;28;20048;-80
2022/07/13 10:24:55;;;;;;;4.63;2.53;;;;;;;25.57;44.09;99576.50;5073361;28;20052;-80
2022/07/13 10:27:26;;;;;;;2.47;2.28;;;;;;;25.31;44.32;99579.00;5073900;28;20137;-81
2022/07/13 10:30:00;;;;;;;3.08;2.30;;;;;;;25.24;44.15;99573.19;5073619;28;20044;-82
2022/07/13 10:32:31;;;;;;;3.90;2.50;;;;;;;25.24;44.08;99575.84;5073436;28;20056;-80
2022/07/13 10:35:07;;;;;;;4.03;2.88;;;;;;;25.00;45.66;99570.19;5073063;28;20080;-81
2022/07/13 10:37:56;;;;;;;8.15;3.40;;;;;;;24.79;45.84;99579.50;5072345;28;20549;-80
2022/07/13 10:40:30;;;;;;;2.25;2.00;;;;;;;24.55;44.21;99563.97;5073188;28;20570;-83
2022/07/13 10:42:57;;;;;;;3.40;2.20;;;;;;;24.56;45.22;99568.34;5071929;28;20055;-82
2022/07/13 10:45:43;;;;;;;3.97;2.50;;;;;;;24.62;45.11;99551.97;5071895;28;20098;-80
2022/07/13 10:48:24;;;;;;;1.95;1.85;;;;;;;24.82;42.59;99552.59;5073232;28;20509;-82
2022/07/13 10:50:54;;;;;;;4.03;2.03;;;;;;;24.61;42.53;99552.94;5072782;28;20414;-79
2022/07/13 10:53:43;;;;;;;2.83;2.20;;;;;;;24.63;42.78;99555.50;5073074;28;20505;-81
2022/07/13 10:56:17;;;;;;;3.90;2.30;;;;;;;24.90;42.85;99552.97;5070835;28;20060;-80
2022/07/13 10:58:49;;;;;;;4.05;2.20;;;;;;;25.21;42.17;99545.78;5072651;28;20139;-81
2022/07/13 11:01:43;;;;;;;3.88;1.77;;;;;;;25.36;40.11;99546.63;5073187;28;20058;-80
2022/07/13 11:04:15;;;;;;;3.30;2.03;;;;;;;25.58;39.49;99544.34;5072912;28;20497;-82
2022/07/13 11:07:03;;;;;;;3.13;2.05;;;;;;;25.66;39.33;99538.47;5071880;28;20044;-81
2022/07/13 11:09:30;;;;;;;2.47;1.80;;;;;;;25.61;38.64;99545.94;5072732;28;20064;-79
2022/07/13 11:11:57;;;;;;;1.80;1.70;;;;;;;25.60;38.13;99553.13;5071336;28;20083;-80
2022/07/13 11:14:53;;;;;;;2.88;2.20;;;;;;;25.57;38.99;99547.94;5073137;28;20059;-81
2022/07/13 11:17:27;;;;;;;3.75;2.00;;;;;;;25.71;40.08;99534.56;5065972;28;20145;-84
2022/07/13 11:20:09;;;;;;;3.58;2.20;;;;;;;25.27;42.48;99548.06;5057187;28;20057;-82
2022/07/13 11:25:48;;;;;;;2.92;2.10;;;;;;;24.93;43.74;99542.13;5045434;28;20059;-81
2022/07/13 11:28:30;;;;;;;4.00;2.15;;;;;;;24.78;44.31;99548.38;5042995;28;20045;-83
2022/07/13 11:31:01;;;;;;;2.88;2.15;;;;;;;24.46;44.99;99535.13;5043851;28;20425;-83
2022/07/13 11:33:29;;;;;;;3.45;2.35;;;;;;;24.60;45.36;99561.03;5043053;28;20107;-81
2022/07/13 11:35:59;;;;;;;2.38;2.15;;;;;;;24.43;44.91;99525.47;5040297;28;20049;-81
2022/07/13 11:38:35;;;;;;;3.65;2.30;;;;;;;24.65;45.17;99535.78;5042940;28;20517;-81
2022/07/13 11:41:04;;;;;;;3.25;2.08;;;;;;;24.94;44.39;99525.13;5041627;28;20059;-82
2022/07/13 11:43:31;;;;;;;2.40;2.20;;;;;;;25.22;43.64;99543.03;5042914;28;20519;-81
2022/07/13 11:45:58;;;;;;;2.20;2.00;;;;;;;25.50;43.42;99538.63;5040041;28;20061;-82
2022/07/13 11:48:31;;;;;;;2.70;2.17;;;;;;;25.61;42.26;99549.47;5041006;28;20041;-81
2022/07/13 11:50:58;;;;;;;3.03;2.10;;;;;;;25.55;43.13;99541.84;5066087;28;20560;-78